Time;durP1;ratioP1;P1;durP2;ratioP2;P2;SDS_P1;SDS_P2;PMS_P1;PMS_P2;Temp;Humidity;BMP_temperature;BMP_pressure;BME280_temperature;BME280_humidity;BME280_pressure;Samples;Min_cycle;Max_cycle;Signal;HPM_P1;HPM_P2
2021/12/15 00:02:24;;;;;;;17.60;12.18;;;;;;;0.95;81.87;100896.03;1736994;82;21080;-71
2021/12/15 00:04:52;;;;;;;17.42;12.23;;;;;;;0.97;81.89;100900.31;1737712;82;22854;-71
2021/12/15 00:07:21;;;;;;;16.37;11.25;;;;;;;0.96;81.84;100883.42;1735155;80;21380;-71
2021/12/15 00:09:48;;;;;;;14.80;10.63;;;;;;;0.95;81.86;100876.52;1758062;80;20960;-70
2021/12/15 00:12:14;;;;;;;17.70;12.10;;;;;;;0.91;81.82;100876.23;1723046;82;21066;-71
2021/12/15 00:14:43;;;;;;;19.05;12.30;;;;;;;0.88;81.83;100882.84;1709954;84;21387;-70
2021/12/15 00:17:09;;;;;;;16.85;11.10;;;;;;;0.87;81.85;100882.00;1724671;83;22820;-70
2021/12/15 00:19:37;;;;;;;18.02;12.30;;;;;;;0.88;81.88;100884.14;1753737;80;21025;-71
2021/12/15 00:22:04;;;;;;;16.95;11.97;;;;;;;0.88;81.91;100882.39;1748521;81;20961;-71
2021/12/15 00:24:30;;;;;;;18.50;12.60;;;;;;;0.89;81.97;100878.89;1750184;82;21452;-71
2021/12/15 00:26:57;;;;;;;17.50;11.40;;;;;;;0.91;82.00;100871.03;1750978;82;21053;-70
2021/12/15 00:29:24;;;;;;;15.80;11.22;;;;;;;0.91;81.98;100870.58;1767520;81;21794;-71
2021/12/15 00:31:51;;;;;;;14.80;10.85;;;;;;;0.91;81.98;100869.28;1769182;81;20946;-72
2021/12/15 00:34:20;;;;;;;14.23;10.78;;;;;;;0.92;82.04;100864.48;1753143;81;21511;-70
2021/12/15 00:36:48;;;;;;;14.28;10.40;;;;;;;0.94;82.07;100860.07;1750941;81;21003;-70
2021/12/15 00:39:19;;;;;;;14.65;10.98;;;;;;;0.92;82.10;100851.93;1751059;81;21556;-70
2021/12/15 00:41:46;;;;;;;14.33;9.90;;;;;;;0.88;82.05;100855.09;1756560;81;21839;-70
2021/12/15 00:44:12;;;;;;;14.30;11.08;;;;;;;0.86;82.11;100855.56;1777133;80;20940;-70
2021/12/15 00:46:39;;;;;;;16.23;10.93;;;;;;;0.87;82.20;100854.69;1730074;82;21468;-70
2021/12/15 00:49:07;;;;;;;14.38;10.53;;;;;;;0.88;82.20;100851.64;1730238;83;21484;-70
2021/12/15 00:51:38;;;;;;;15.15;11.05;;;;;;;0.85;82.20;100847.36;1729956;83;21001;-70
2021/12/15 00:54:06;;;;;;;14.38;10.88;;;;;;;0.81;82.19;100850.52;1747478;81;21806;-70
2021/12/15 00:56:34;;;;;;;17.57;11.53;;;;;;;0.82;82.27;100848.31;1746134;82;21391;-70
2021/12/15 00:59:08;;;;;;;14.78;10.65;;;;;;;0.85;82.31;100852.56;1717330;83;21016;-70
2021/12/15 01:01:37;;;;;;;15.28;11.43;;;;;;;0.86;82.36;100851.20;1737697;80;21024;-70
2021/12/15 01:04:04;;;;;;;13.78;9.95;;;;;;;0.88;82.37;100855.09;1747265;81;21004;-70
2021/12/15 01:06:31;;;;;;;14.70;10.75;;;;;;;0.90;82.41;100861.08;1752403;80;21822;-71
2021/12/15 01:09:03;;;;;;;12.47;9.98;;;;;;;0.89;82.40;100864.59;1717825;81;21426;-71
2021/12/15 01:12:04;;;;;;;14.30;10.58;;;;;;;0.89;82.42;100863.28;1787385;80;20960;-70
2021/12/15 01:22:35;;;;;;;10.18;7.92;;;;;;;0.94;82.48;100855.33;1784569;78;21014;-71
2021/12/15 01:25:15;;;;;;;9.70;7.85;;;;;;;0.91;82.43;100859.33;1810504;78;20940;-70
2021/12/15 01:27:43;;;;;;;8.98;7.30;;;;;;;0.86;82.39;100857.71;1821916;78;20948;-70
2021/12/15 01:30:12;;;;;;;10.98;7.50;;;;;;;0.87;82.46;100850.78;1823754;78;20964;-71
2021/12/15 01:32:38;;;;;;;9.88;7.90;;;;;;;0.86;82.43;100846.00;1783502;78;21870;-70
2021/12/15 01:35:06;;;;;;;9.28;7.53;;;;;;;0.83;82.42;100842.21;1792558;78;21010;-70
2021/12/15 01:37:33;;;;;;;10.28;7.50;;;;;;;0.83;82.43;100847.41;1772026;79;20953;-70
2021/12/15 01:40:00;;;;;;;9.53;7.60;;;;;;;0.83;82.48;100842.21;1816088;78;21702;-70
2021/12/15 01:42:30;;;;;;;8.98;7.00;;;;;;;0.82;82.45;100837.91;1787337;78;20964;-70
2021/12/15 01:47:41;;;;;;;9.75;7.70;;;;;;;0.81;82.38;100839.27;1814139;78;20944;-71
2021/12/15 01:50:10;;;;;;;10.10;7.35;;;;;;;0.81;82.41;100840.13;1812620;78;20964;-70
2021/12/15 01:52:40;;;;;;;11.25;7.92;;;;;;;0.81;82.37;100845.77;1800288;78;20992;-70
2021/12/15 01:55:12;;;;;;;10.98;8.13;;;;;;;0.82;82.43;100838.37;1792341;80;21027;-71
2021/12/15 01:57:39;;;;;;;9.08;7.12;;;;;;;0.84;82.44;100845.21;1812569;78;22251;-71
2021/12/15 02:00:21;;;;;;;11.08;7.80;;;;;;;0.85;82.48;100842.16;1823434;78;21099;-70
2021/12/15 02:02:50;;;;;;;9.80;7.40;;;;;;;0.84;82.41;100845.21;1771270;78;20992;-70
2021/12/15 02:05:18;;;;;;;9.03;7.03;;;;;;;0.85;82.45;100856.46;1773223;78;20992;-71
2021/12/15 02:07:44;;;;;;;10.08;8.05;;;;;;;0.83;82.43;100850.02;1792189;78;20948;-71
2021/12/15 02:10:12;;;;;;;9.80;7.47;;;;;;;0.83;82.42;100845.27;1791077;78;21706;-69
2021/12/15 02:12:40;;;;;;;9.38;7.20;;;;;;;0.83;82.41;100847.86;1745212;81;21570;-70
2021/12/15 02:15:15;;;;;;;9.35;6.80;;;;;;;0.82;82.38;100857.87;1797887;79;21016;-70
2021/12/15 02:17:42;;;;;;;9.43;7.25;;;;;;;0.80;82.43;100858.38;1770896;79;21081;-70
2021/12/15 02:20:13;;;;;;;9.85;6.92;;;;;;;0.80;82.50;100859.22;1778193;79;20953;-70
2021/12/15 02:22:40;;;;;;;11.65;7.75;;;;;;;0.80;82.49;100853.17;1777031;79;21824;-70
2021/12/15 02:25:11;;;;;;;11.00;7.78;;;;;;;0.78;82.51;100858.88;1760328;79;21067;-70
2021/12/15 02:27:37;;;;;;;8.73;6.80;;;;;;;0.78;82.59;100849.33;1783983;79;21040;-71
2021/12/15 02:30:26;;;;;;;11.28;7.67;;;;;;;0.78;82.62;100841.98;1776346;79;21447;-71
2021/12/15 02:33:01;;;;;;;10.25;7.78;;;;;;;0.78;82.65;100841.98;1783064;79;21028;-70
2021/12/15 02:38:04;;;;;;;10.82;7.58;;;;;;;0.79;82.72;100832.83;1760914;79;20941;-70
2021/12/15 02:40:33;;;;;;;13.38;8.18;;;;;;;0.79;82.80;100837.17;1776812;79;20932;-70
2021/12/15 02:43:00;;;;;;;11.15;7.95;;;;;;;0.77;82.78;100833.33;1754081;79;20997;-69
2021/12/15 02:45:27;;;;;;;11.80;7.45;;;;;;;0.78;82.83;100838.08;1767159;80;21012;-70
2021/12/15 02:47:54;;;;;;;11.40;8.68;;;;;;;0.76;82.88;100835.50;1757690;79;21789;-70
2021/12/15 02:50:24;;;;;;;12.30;8.05;;;;;;;0.77;82.91;100837.65;1771032;79;21381;-71
2021/12/15 02:52:51;;;;;;;12.93;8.73;;;;;;;0.78;82.93;100839.38;1746039;80;21040;-71
2021/12/15 02:55:18;;;;;;;15.18;8.43;;;;;;;0.76;82.97;100847.20;1738603;82;20993;-71
2021/12/15 02:57:46;;;;;;;12.43;8.45;;;;;;;0.76;83.03;100851.55;1689448;82;21577;-71
2021/12/15 03:00:19;;;;;;;11.90;8.28;;;;;;;0.76;83.08;100860.65;1789679;79;21759;-72
2021/12/15 03:05:30;;;;;;;11.08;8.15;;;;;;;0.74;83.20;100854.20;1789003;79;20973;-71
2021/12/15 03:08:20;;;;;;;11.10;7.75;;;;;;;0.76;83.21;100849.80;1771722;79;21001;-71
2021/12/15 03:15:54;;;;;;;11.28;7.17;;;;;;;0.77;83.30;100852.83;1737010;80;20953;-71
2021/12/15 03:18:24;;;;;;;10.58;7.72;;;;;;;0.79;83.35;100863.17;1756040;80;20949;-71
2021/12/15 03:21:08;;;;;;;8.95;7.17;;;;;;;0.78;83.36;100860.17;1746122;80;21413;-71
2021/12/15 03:23:52;;;;;;;13.00;7.50;;;;;;;0.77;83.36;100852.83;1741511;81;21538;-70
2021/12/15 03:26:32;;;;;;;11.15;7.25;;;;;;;0.79;83.40;100855.38;1733835;80;22489;-70
2021/12/15 03:37:23;;;;;;;9.58;7.03;;;;;;;0.83;83.49;100868.67;1781785;80;21055;-71
2021/12/15 03:39:45;;;;;;;10.45;7.17;;;;;;;0.84;83.47;100877.72;1753405;80;21846;-71
2021/12/15 03:42:13;;;;;;;10.25;6.70;;;;;;;0.82;83.45;100861.77;1741732;82;20998;-70
2021/12/15 03:44:41;;;;;;;10.93;7.40;;;;;;;0.82;83.50;100857.42;1772323;80;21006;-71
2021/12/15 03:47:12;;;;;;;11.80;7.58;;;;;;;0.85;83.53;100865.11;1777112;80;21276;-71
2021/12/15 03:49:40;;;;;;;9.78;7.10;;;;;;;0.85;83.53;100868.16;1754941;80;20992;-72
2021/12/15 03:52:07;;;;;;;10.18;7.00;;;;;;;0.85;83.47;100877.27;1732115;80;22161;-71
2021/12/15 03:54:34;;;;;;;14.15;8.25;;;;;;;0.83;83.51;100875.17;1775309;80;20966;-69
2021/12/15 03:57:01;;;;;;;11.53;7.25;;;;;;;0.82;83.52;100872.17;1765411;80;21432;-70
2021/12/15 03:59:28;;;;;;;10.03;6.90;;;;;;;0.84;83.55;100863.87;1756513;80;20996;-70
2021/12/15 04:01:55;;;;;;;9.60;6.87;;;;;;;0.85;83.55;100861.66;1765584;80;21044;-69
2021/12/15 04:04:22;;;;;;;9.80;7.45;;;;;;;0.84;83.52;100863.87;1757672;80;21841;-70
2021/12/15 04:06:50;;;;;;;11.43;7.47;;;;;;;0.84;83.56;100869.92;1752801;80;21017;-70
2021/12/15 04:09:17;;;;;;;10.80;7.35;;;;;;;0.85;83.58;100874.66;1764992;80;21503;-71
2021/12/15 04:11:44;;;;;;;11.10;7.03;;;;;;;0.86;83.58;100875.06;1795480;79;21034;-70
2021/12/15 04:14:20;;;;;;;10.18;7.53;;;;;;;0.88;83.60;100875.04;1795024;79;20952;-70
2021/12/15 04:16:46;;;;;;;9.03;6.80;;;;;;;0.88;83.55;100881.09;1756324;79;21837;-71
2021/12/15 04:19:16;;;;;;;10.35;7.17;;;;;;;0.86;83.57;100880.27;1799627;79;20994;-70
2021/12/15 04:21:43;;;;;;;8.63;6.03;;;;;;;0.84;83.56;100880.77;1752036;80;21558;-70
2021/12/15 04:24:13;;;;;;;13.40;10.08;;;;;;;0.84;83.59;100889.87;1738432;82;20979;-70
2021/12/15 04:26:40;;;;;;;10.50;7.47;;;;;;;0.86;83.63;100894.56;1688820;83;21022;-70
2021/12/15 04:29:07;;;;;;;10.00;7.05;;;;;;;0.89;83.63;100895.80;1715286;82;22725;-69
2021/12/15 04:31:38;;;;;;;9.58;6.80;;;;;;;0.86;83.57;100898.02;1741128;80;21004;-70
2021/12/15 04:34:07;;;;;;;11.45;7.37;;;;;;;0.84;83.60;100894.62;1735829;81;21005;-70
2021/12/15 04:36:39;;;;;;;12.37;8.55;;;;;;;0.85;83.61;100888.97;1689205;83;21095;-71
2021/12/15 04:39:09;;;;;;;9.80;6.78;;;;;;;0.88;83.62;100894.55;1702881;82;21084;-71
2021/12/15 04:41:36;;;;;;;11.43;7.60;;;;;;;0.88;83.63;100896.70;1752678;80;22534;-70
2021/12/15 04:44:09;;;;;;;11.35;7.80;;;;;;;0.88;83.61;100896.70;1756108;80;21098;-70
2021/12/15 04:46:35;;;;;;;9.30;7.37;;;;;;;0.88;83.62;100899.30;1738123;82;21541;-73
2021/12/15 04:49:03;;;;;;;12.33;7.92;;;;;;;0.90;83.63;100901.39;1744248;80;21421;-69
2021/12/15 04:51:30;;;;;;;11.20;8.03;;;;;;;0.90;83.61;100906.59;1702969;82;21341;-71
2021/12/15 04:53:58;;;;;;;10.32;7.20;;;;;;;0.89;83.58;100903.59;1726958;80;22590;-71
2021/12/15 04:56:25;;;;;;;12.05;7.87;;;;;;;0.91;83.61;100906.14;1773492;79;21040;-71
2021/12/15 04:58:54;;;;;;;11.20;7.62;;;;;;;0.90;83.59;100906.59;1751455;81;20989;-72
2021/12/15 05:01:20;;;;;;;11.80;7.50;;;;;;;0.90;83.58;100909.65;1747881;81;21051;-72
2021/12/15 05:03:47;;;;;;;10.23;6.80;;;;;;;0.90;83.60;100913.09;1738978;81;21483;-74
2021/12/15 05:06:14;;;;;;;12.35;7.85;;;;;;;0.91;83.66;100914.80;1738016;82;21827;-78
2021/12/15 05:08:41;;;;;;;11.73;7.75;;;;;;;0.93;83.63;100908.23;1738470;81;20951;-80
2021/12/15 05:11:10;;;;;;;11.78;8.18;;;;;;;0.93;83.61;100903.04;1756479;81;21052;-79
2021/12/15 05:13:38;;;;;;;11.28;7.03;;;;;;;0.94;83.60;100904.73;1792017;80;21497;-76
2021/12/15 05:16:05;;;;;;;10.53;7.25;;;;;;;0.95;83.61;100912.48;1810158;78;20948;-77
2021/12/15 05:18:33;;;;;;;11.50;7.47;;;;;;;0.96;83.58;100910.73;1796230;78;21890;-75
2021/12/15 05:21:00;;;;;;;9.18;6.50;;;;;;;0.94;83.55;100913.39;1800985;78;20944;-74
2021/12/15 05:23:31;;;;;;;10.28;7.37;;;;;;;0.92;83.54;100915.20;1767444;79;21547;-79
2021/12/15 05:25:58;;;;;;;10.72;7.42;;;;;;;0.88;83.51;100917.95;1781545;78;20976;-81
2021/12/15 05:28:26;;;;;;;11.68;8.05;;;;;;;0.85;83.55;100921.02;1756187;81;21588;-82
2021/12/15 05:30:53;;;;;;;11.43;8.40;;;;;;;0.84;83.60;100920.63;1728968;81;22843;-79
2021/12/15 05:33:20;;;;;;;11.48;7.80;;;;;;;0.87;83.65;100927.50;1731798;82;20928;-76
2021/12/15 05:35:47;;;;;;;12.05;8.55;;;;;;;0.90;83.69;100926.55;1782703;79;21012;-87
2021/12/15 05:38:14;;;;;;;11.25;8.03;;;;;;;0.90;83.65;100924.80;1780181;80;21009;-88
2021/12/15 05:40:41;;;;;;;13.18;9.38;;;;;;;0.88;83.67;100929.20;1786028;80;21497;-88
2021/12/15 05:43:09;;;;;;;12.58;8.73;;;;;;;0.89;83.69;100936.55;1779671;80;21824;-88
2021/12/15 05:45:37;;;;;;;13.03;9.53;;;;;;;0.90;83.71;100938.25;1779230;80;21027;-87
2021/12/15 05:48:06;;;;;;;12.35;8.58;;;;;;;0.90;83.69;100939.55;1783294;80;21025;-88
2021/12/15 05:50:34;;;;;;;14.00;9.95;;;;;;;0.89;83.73;100942.61;1785595;80;20996;-88
2021/12/15 05:53:03;;;;;;;15.68;9.53;;;;;;;0.90;83.72;100944.30;1782032;80;20941;-88
2021/12/15 05:55:29;;;;;;;14.07;10.05;;;;;;;0.88;83.70;100946.55;1759135;81;21829;-87
2021/12/15 05:57:56;;;;;;;14.35;9.75;;;;;;;0.88;83.75;100947.41;1770427;80;21037;-87
2021/12/15 06:00:27;;;;;;;15.03;9.35;;;;;;;0.89;83.75;100944.36;1786424;80;20946;-88
2021/12/15 06:02:55;;;;;;;15.45;10.43;;;;;;;0.90;83.75;100953.86;1736910;80;21484;-87
2021/12/15 06:05:21;;;;;;;16.80;10.25;;;;;;;0.87;83.69;100956.11;1788625;78;21415;-88
2021/12/15 06:07:49;;;;;;;15.10;9.78;;;;;;;0.88;83.75;100958.26;1785069;80;21812;-88
2021/12/15 06:10:21;;;;;;;15.43;9.83;;;;;;;0.89;83.74;100954.77;1789189;80;21012;-87
2021/12/15 06:12:49;;;;;;;15.98;10.70;;;;;;;0.88;83.74;100952.61;1784816;80;21413;-87
2021/12/15 06:15:24;;;;;;;16.65;10.78;;;;;;;0.88;83.76;100956.96;1773531;81;21592;-87
2021/12/15 06:17:56;;;;;;;16.37;10.40;;;;;;;0.92;83.78;100960.70;1773593;81;21384;-88
2021/12/15 06:20:24;;;;;;;13.72;10.15;;;;;;;0.96;83.79;100958.41;1775546;79;21861;-88
2021/12/15 06:22:54;;;;;;;15.80;9.55;;;;;;;0.96;83.75;100959.70;1766470;79;21356;-88
2021/12/15 06:25:22;;;;;;;15.32;10.40;;;;;;;0.98;83.72;100954.48;1787251;79;21355;-87
2021/12/15 06:27:49;;;;;;;13.98;10.08;;;;;;;0.97;83.67;100956.23;1784907;80;21023;-88
2021/12/15 06:30:16;;;;;;;14.15;10.38;;;;;;;0.98;83.65;100955.78;1770233;79;21449;-89
2021/12/15 06:32:43;;;;;;;13.32;9.55;;;;;;;0.98;83.58;100963.13;1793759;79;22455;-88
2021/12/15 06:35:09;;;;;;;14.47;9.35;;;;;;;0.97;83.56;100958.83;1753933;81;21514;-87
2021/12/15 06:37:36;;;;;;;14.28;10.20;;;;;;;0.99;83.55;100957.48;1758212;81;21081;-89
2021/12/15 06:40:07;;;;;;;15.58;10.10;;;;;;;1.01;83.53;100964.78;1726525;82;21008;-88
2021/12/15 06:42:37;;;;;;;15.78;9.00;;;;;;;1.00;83.46;100968.28;1785036;80;21698;-87
2021/12/15 06:45:05;;;;;;;15.38;10.10;;;;;;;0.98;83.42;100970.94;1784057;80;21809;-88
2021/12/15 06:58:34;;;;;;;15.15;9.90;;;;;;;0.98;83.30;100986.99;1759800;80;22693;-87
2021/12/15 07:01:03;;;;;;;13.85;9.23;;;;;;;0.94;83.22;100988.81;1786350;80;21463;-87
2021/12/15 07:03:31;;;;;;;15.70;10.43;;;;;;;0.94;83.20;100989.27;1780978;79;20945;-87
2021/12/15 07:05:58;;;;;;;15.70;9.68;;;;;;;0.92;83.23;100989.31;1774504;80;21513;-87
2021/12/15 07:08:29;;;;;;;17.55;10.18;;;;;;;0.95;83.28;100995.72;1774818;80;21059;-87
2021/12/15 07:10:58;;;;;;;14.75;9.18;;;;;;;0.97;83.29;100995.25;1773577;79;21840;-88
2021/12/15 07:13:28;;;;;;;16.48;9.83;;;;;;;0.98;83.31;100991.75;1774874;79;20923;-88
2021/12/15 07:16:00;;;;;;;14.78;10.00;;;;;;;0.99;83.26;100992.14;1763805;81;20965;-88
2021/12/15 07:18:39;;;;;;;16.70;9.43;;;;;;;0.99;83.24;101001.25;1773642;80;20989;-85
2021/12/15 07:21:05;;;;;;;15.60;10.00;;;;;;;0.97;83.25;101009.55;1788327;79;21022;-78
2021/12/15 07:23:27;;;;;;;15.32;10.48;;;;;;;0.97;83.26;101003.05;1783602;79;22223;-81
2021/12/15 07:25:54;;;;;;;15.70;9.80;;;;;;;1.00;83.31;100999.50;1783149;79;20925;-90
2021/12/15 07:28:24;;;;;;;17.92;10.23;;;;;;;1.03;83.33;101004.14;1764728;81;20952;-80
2021/12/15 07:30:50;;;;;;;17.02;9.50;;;;;;;1.03;83.30;101003.30;1734802;82;22532;-83
2021/12/15 07:33:17;;;;;;;17.40;10.50;;;;;;;1.05;83.35;101003.64;1787197;79;20995;-80
2021/12/15 07:35:44;;;;;;;16.02;9.80;;;;;;;1.08;83.36;100994.92;1764700;81;21885;-78
2021/12/15 07:38:12;;;;;;;14.78;9.63;;;;;;;1.09;83.33;100997.92;1786376;80;20952;-77
2021/12/15 07:40:40;;;;;;;15.93;9.95;;;;;;;1.07;83.27;100999.72;1776745;80;20996;-78
2021/12/15 07:43:13;;;;;;;15.05;9.53;;;;;;;1.03;83.26;101004.14;1779349;78;21639;-78
2021/12/15 07:45:51;;;;;;;16.10;9.68;;;;;;;1.03;83.24;101002.00;1761044;80;20962;-77
2021/12/15 07:48:20;;;;;;;14.73;9.70;;;;;;;1.00;83.25;101004.70;1764638;81;21841;-77
2021/12/15 07:50:49;;;;;;;13.55;7.95;;;;;;;1.01;83.32;101000.75;1757580;81;21022;-82
2021/12/15 07:53:18;;;;;;;12.88;9.65;;;;;;;1.03;83.34;100995.50;1791347;78;21027;-76
2021/12/15 07:55:46;;;;;;;11.03;7.78;;;;;;;1.02;83.24;101000.30;1763171;80;21435;-75
2021/12/15 07:58:13;;;;;;;12.63;7.37;;;;;;;1.00;83.22;100995.14;1764438;80;21106;-77
2021/12/15 08:00:42;;;;;;;9.38;6.40;;;;;;;0.99;83.24;100996.05;1773688;80;22630;-76
2021/12/15 08:03:10;;;;;;;9.00;6.20;;;;;;;1.01;83.26;100995.55;1789177;79;20983;-81
2021/12/15 08:05:37;;;;;;;9.28;6.22;;;;;;;1.02;83.24;100994.64;1769943;79;21466;-78
2021/12/15 08:08:04;;;;;;;9.20;6.37;;;;;;;1.04;83.26;100997.19;1795812;78;20944;-80
2021/12/15 08:10:31;;;;;;;9.35;6.62;;;;;;;1.05;83.22;100989.79;1790201;78;21063;-84
2021/12/15 08:12:58;;;;;;;12.28;7.60;;;;;;;1.07;83.24;100992.77;1773513;79;22657;-82
2021/12/15 08:15:25;;;;;;;11.35;6.95;;;;;;;1.02;83.12;100988.14;1775224;79;20972;-81
2021/12/15 08:17:52;;;;;;;10.25;6.67;;;;;;;0.99;83.13;100986.95;1753750;80;20949;-82
2021/12/15 08:20:26;;;;;;;13.08;7.12;;;;;;;1.00;83.18;100986.49;1764607;79;21111;-77
2021/12/15 08:22:54;;;;;;;10.50;7.45;;;;;;;1.01;83.23;100990.34;1766364;79;20937;-83
2021/12/15 08:25:21;;;;;;;12.58;8.08;;;;;;;1.04;83.27;100990.69;1767164;80;22285;-88
2021/12/15 08:27:48;;;;;;;12.37;8.10;;;;;;;1.08;83.38;100987.12;1781040;79;20989;-85
2021/12/15 08:30:22;;;;;;;13.95;9.38;;;;;;;1.11;83.37;100990.47;1786095;79;21514;-84
2021/12/15 08:32:55;;;;;;;14.30;9.25;;;;;;;1.14;83.35;100985.61;1752698;79;21116;-81
2021/12/15 08:35:29;;;;;;;16.30;10.80;;;;;;;1.13;83.30;100989.11;1778492;79;20925;-81
2021/12/15 08:37:56;;;;;;;17.10;11.30;;;;;;;1.11;83.31;100993.06;1779858;79;21887;-83
2021/12/15 08:40:23;;;;;;;16.25;11.25;;;;;;;1.14;83.38;100986.45;1775385;79;20980;-83
2021/12/15 08:42:50;;;;;;;22.70;13.00;;;;;;;1.15;83.35;100992.06;1758915;80;20985;-81
2021/12/15 08:45:17;;;;;;;20.60;12.85;;;;;;;1.18;83.36;100991.14;1784543;80;20988;-82
2021/12/15 08:47:44;;;;;;;19.80;13.05;;;;;;;1.19;83.30;100990.23;1787443;80;21086;-83
2021/12/15 08:50:14;;;;;;;22.70;13.60;;;;;;;1.16;83.28;100990.34;1777884;80;21770;-79
2021/12/15 08:52:41;;;;;;;21.68;13.55;;;;;;;1.19;83.28;100984.19;1777983;79;21004;-77
2021/12/15 08:55:09;;;;;;;21.45;12.85;;;;;;;1.22;83.30;100977.57;1777925;80;21508;-77
2021/12/15 08:57:37;;;;;;;24.63;14.05;;;;;;;1.22;83.21;100977.57;1758272;80;21061;-77
2021/12/15 09:00:07;;;;;;;21.00;13.08;;;;;;;1.19;83.06;100985.03;1779325;80;21441;-78
2021/12/15 09:02:36;;;;;;;22.77;14.20;;;;;;;1.19;83.04;100975.08;1776195;79;21875;-77
2021/12/15 09:05:04;;;;;;;22.52;14.13;;;;;;;1.18;82.94;100973.38;1774971;79;21475;-75
2021/12/15 09:07:31;;;;;;;24.80;14.70;;;;;;;1.18;82.92;100973.38;1769194;80;20929;-77
2021/12/15 09:09:58;;;;;;;24.55;15.18;;;;;;;1.18;82.86;100972.92;1768908;80;20988;-76
2021/12/15 09:12:26;;;;;;;23.47;14.85;;;;;;;1.18;82.76;100973.38;1780387;80;20975;-78
2021/12/15 09:14:53;;;;;;;25.17;15.30;;;;;;;1.19;82.72;100967.27;1765998;79;22226;-77
2021/12/15 09:17:21;;;;;;;23.45;14.53;;;;;;;1.24;82.72;100973.16;1768436;80;20944;-77
2021/12/15 09:19:48;;;;;;;22.48;14.28;;;;;;;1.27;82.71;100980.45;1786385;78;21004;-77
2021/12/15 09:22:14;;;;;;;22.85;14.33;;;;;;;1.28;82.64;100980.84;1781263;80;21043;-76
2021/12/15 09:24:41;;;;;;;22.80;14.87;;;;;;;1.30;82.63;100980.80;1783912;79;21107;-76
2021/12/15 09:27:08;;;;;;;29.48;16.37;;;;;;;1.33;82.61;100970.27;1753659;81;21818;-84
2021/12/15 09:29:35;;;;;;;26.15;15.80;;;;;;;1.37;82.58;100967.99;1791654;78;21046;-82
2021/12/15 09:32:02;;;;;;;31.80;18.40;;;;;;;1.38;82.50;100965.78;1790967;78;21435;-79
2021/12/15 09:34:30;;;;;;;31.70;18.10;;;;;;;1.37;82.46;100971.90;1781036;79;20985;-82
2021/12/15 09:36:58;;;;;;;33.67;18.80;;;;;;;1.38;82.45;100974.90;1783387;80;20991;-79
2021/12/15 09:39:25;;;;;;;39.25;20.95;;;;;;;1.39;82.41;100970.09;1786776;80;22191;-79
2021/12/15 09:41:52;;;;;;;38.13;20.92;;;;;;;1.34;82.25;100961.56;1776071;80;21309;-78
2021/12/15 09:44:23;;;;;;;35.33;19.23;;;;;;;1.32;82.22;100968.13;1786590;80;21033;-80
2021/12/15 10:03:32;;;;;;;66.77;21.90;;;;;;;1.31;82.16;100959.06;1763945;80;21046;-77
2021/12/15 10:05:55;;;;;;;87.75;23.62;;;;;;;1.31;82.00;100955.16;1781380;79;22824;-83
2021/12/15 10:11:42;;;;;;;38.45;19.10;;;;;;;1.28;81.91;100958.72;1769405;79;21233;-80
2021/12/15 10:19:40;;;;;;;34.53;18.02;;;;;;;1.29;81.82;100948.71;1754774;80;21860;-82
2021/12/15 10:22:27;;;;;;;33.75;19.32;;;;;;;1.30;81.77;100954.77;1743336;80;21036;-81
2021/12/15 10:24:54;;;;;;;33.65;17.00;;;;;;;1.30;81.78;100949.11;1747191;80;21079;-84
2021/12/15 10:27:51;;;;;;;36.55;18.25;;;;;;;1.31;81.76;100946.91;1730100;80;21446;-80
2021/12/15 10:30:43;;;;;;;38.75;19.12;;;;;;;1.29;81.66;100950.47;1754853;80;21460;-84
2021/12/15 10:33:15;;;;;;;37.60;19.60;;;;;;;1.28;81.65;100946.16;1762343;80;21938;-80
2021/12/15 10:36:02;;;;;;;34.83;19.07;;;;;;;1.30;81.68;100946.96;1745158;80;20969;-80
2021/12/15 10:38:41;;;;;;;33.20;17.52;;;;;;;1.29;81.67;100943.51;1744253;80;21466;-83
2021/12/15 10:41:14;;;;;;;35.50;19.30;;;;;;;1.32;81.69;100941.25;1743813;82;21207;-79
2021/12/15 10:44:02;;;;;;;35.40;18.57;;;;;;;1.33;81.65;100939.05;1712147;83;20957;-79
2021/12/15 10:46:42;;;;;;;34.25;18.60;;;;;;;1.34;81.66;100938.98;1706390;83;21832;-77
2021/12/15 10:49:20;;;;;;;29.50;17.42;;;;;;;1.34;81.55;100944.64;1696176;84;21135;-78
2021/12/15 10:51:55;;;;;;;34.43;17.65;;;;;;;1.35;81.49;100941.14;1696114;84;21052;-76
2021/12/15 10:54:35;;;;;;;33.73;17.62;;;;;;;1.33;81.42;100939.05;1696565;84;21058;-76
2021/12/15 10:57:16;;;;;;;35.13;18.07;;;;;;;1.32;81.30;100938.20;1698498;84;21124;-76
2021/12/15 10:59:46;;;;;;;30.48;17.45;;;;;;;1.33;81.29;100939.05;1696846;84;21915;-76
2021/12/15 11:02:21;;;;;;;32.80;18.23;;;;;;;1.34;81.30;100940.29;1697053;84;21100;-75
2021/12/15 11:04:55;;;;;;;59.73;25.75;;;;;;;1.36;81.33;100939.81;1698199;84;21051;-76
2021/12/15 11:07:32;;;;;;;83.75;26.65;;;;;;;1.38;81.35;100937.16;1699792;84;21052;-75
2021/12/15 11:10:27;;;;;;;57.10;24.25;;;;;;;1.39;81.36;100934.95;1696952;84;21047;-73
2021/12/15 11:12:59;;;;;;;47.38;24.10;;;;;;;1.39;81.40;100933.66;1720324;83;21762;-81
2021/12/15 11:15:40;;;;;;;56.10;27.53;;;;;;;1.35;81.41;100935.94;1726823;83;21759;-80
2021/12/15 11:18:24;;;;;;;65.65;32.83;;;;;;;1.32;81.45;100942.09;1726668;82;21047;-79
2021/12/15 11:20:57;;;;;;;58.60;26.70;;;;;;;1.34;81.56;100937.69;1727002;83;21281;-75
2021/12/15 11:23:28;;;;;;;;;;;;;;;1.36;81.62;100935.06;1729681;83;21044;-80
2021/12/15 11:26:07;;;;;;;45.83;24.12;;;;;;;1.37;81.67;100934.16;1726931;83;21853;-79
2021/12/15 11:28:48;;;;;;;48.33;24.75;;;;;;;1.36;81.67;100937.67;1725981;82;22098;-78
2021/12/15 11:31:19;;;;;;;42.58;22.05;;;;;;;1.33;81.65;100934.69;1726033;83;21016;-75
2021/12/15 11:33:52;;;;;;;35.08;16.95;;;;;;;1.32;81.63;100935.59;1727320;83;21192;-77
2021/12/15 11:36:27;;;;;;;48.30;23.30;;;;;;;1.28;81.57;100929.25;1745105;82;21124;-77
2021/12/15 11:39:09;;;;;;;43.78;23.22;;;;;;;1.23;81.55;100936.34;1713560;83;21840;-76
2021/12/15 11:41:42;;;;;;;46.92;21.90;;;;;;;1.21;81.61;100938.99;1684610;83;21066;-77
2021/12/15 11:44:24;;;;;;;45.77;21.27;;;;;;;1.18;81.60;100936.50;1716094;83;21026;-76
2021/12/15 11:47:02;;;;;;;47.10;22.15;;;;;;;1.14;81.57;100934.42;1717771;82;21042;-76
2021/12/15 11:49:32;;;;;;;45.45;24.37;;;;;;;1.15;81.65;100931.37;1715685;82;21556;-77
2021/12/15 11:52:04;;;;;;;42.65;21.85;;;;;;;1.13;81.64;100928.82;1745213;81;22679;-75
2021/12/15 11:54:36;;;;;;;41.80;19.57;;;;;;;1.13;81.65;100930.12;1747529;80;21024;-76
2021/12/15 11:57:22;;;;;;;38.80;20.12;;;;;;;1.14;81.63;100927.06;1763611;79;21023;-77
2021/12/15 11:59:54;;;;;;;39.50;20.92;;;;;;;1.12;81.55;100932.78;1737715;81;21672;-76
2021/12/15 12:02:33;;;;;;;35.28;18.40;;;;;;;1.12;81.55;100926.27;1737559;82;21476;-76
2021/12/15 12:05:13;;;;;;;41.10;20.50;;;;;;;1.13;81.53;100929.27;1736522;81;22209;-75
2021/12/15 12:07:57;;;;;;;34.80;19.82;;;;;;;1.14;81.53;100933.58;1733871;82;21510;-75
2021/12/15 12:10:44;;;;;;;37.78;19.65;;;;;;;1.17;81.49;100933.95;1770975;80;21467;-75
2021/12/15 12:13:20;;;;;;;37.45;20.45;;;;;;;1.19;81.40;100938.20;1747807;80;21066;-75
2021/12/15 12:15:45;;;;;;;36.33;18.37;;;;;;;1.19;81.39;100936.89;1745083;81;21075;-77
2021/12/15 12:18:16;;;;;;;36.75;18.80;;;;;;;1.21;81.37;100935.09;1775003;80;21781;-77
2021/12/15 12:20:47;;;;;;;35.68;19.45;;;;;;;1.22;81.31;100931.58;1781615;80;21012;-73
2021/12/15 12:23:19;;;;;;;34.95;18.75;;;;;;;1.23;81.26;100933.73;1715260;82;21492;-73
2021/12/15 12:25:50;;;;;;;41.18;20.23;;;;;;;1.24;81.24;100939.34;1699536;84;21106;-74
2021/12/15 12:28:21;;;;;;;39.83;20.45;;;;;;;1.25;81.22;100934.08;1745073;82;21467;-78
2021/12/15 12:30:53;;;;;;;38.55;20.88;;;;;;;1.30;81.26;100937.40;1750613;81;22364;-78
2021/12/15 12:33:22;;;;;;;30.43;17.80;;;;;;;1.32;81.21;100943.40;1750400;81;21551;-77
2021/12/15 12:35:53;;;;;;;34.85;19.15;;;;;;;1.35;81.14;100945.05;1750541;80;21009;-73
2021/12/15 12:38:24;;;;;;;36.80;19.45;;;;;;;1.37;81.11;100941.97;1746915;80;21474;-75
2021/12/15 12:40:59;;;;;;;34.23;19.65;;;;;;;1.40;81.07;100948.36;1713179;82;21020;-77
2021/12/15 12:43:32;;;;;;;34.48;19.17;;;;;;;1.42;81.04;100950.45;1709058;83;22657;-76